sensor_id;sensor_type;location;lat;lon;timestamp;pressure;altitude;pressure_sealevel;temperature;humidity
9249;BME280;4660;41.768;26.198;2023-01-01T00:01:26;102497.19;;;2.45;100.00
9249;BME280;4660;41.768;26.198;2023-01-01T00:03:54;102490.84;;;2.51;100.00
9249;BME280;4660;41.768;26.198;2023-01-01T00:06:20;102501.31;;;2.56;100.00
9249;BME280;4660;41.768;26.198;2023-01-01T00:08:46;102501.28;;;2.57;100.00
9249;BME280;4660;41.768;26.198;2023-01-01T00:11:12;102502.34;;;2.52;100.00
9249;BME280;4660;41.768;26.198;2023-01-01T00:13:40;102501.78;;;2.40;100.00
9249;BME280;4660;41.768;26.198;2023-01-01T00:16:12;102501.22;;;2.29;100.00
9249;BME280;4660;41.768;26.198;2023-01-01T00:18:39;102502.41;;;2.48;100.00
9249;BME280;4660;41.768;26.198;2023-01-01T00:21:07;102502.59;;;2.42;100.00
9249;BME280;4660;41.768;26.198;2023-01-01T00:23:34;102512.78;;;2.58;100.00
9249;BME280;4660;41.768;26.198;2023-01-01T00:28:54;102506.09;;;2.44;100.00
9249;BME280;4660;41.768;26.198;2023-01-01T00:31:33;102369.03;;;1.49;100.00
9249;BME280;4660;41.768;26.198;2023-01-01T00:34:33;102506.63;;;2.26;100.00
9249;BME280;4660;41.768;26.198;2023-01-01T00:37:00;102392.69;;;1.56;100.00
9249;BME280;4660;41.768;26.198;2023-01-01T00:39:26;102384.94;;;1.49;100.00
9249;BME280;4660;41.768;26.198;2023-01-01T00:41:51;102426.09;;;1.63;100.00
9249;BME280;4660;41.768;26.198;2023-01-01T00:44:17;102414.38;;;1.72;100.00
9249;BME280;4660;41.768;26.198;2023-01-01T00:46:42;102432.03;;;1.73;100.00
9249;BME280;4660;41.768;26.198;2023-01-01T00:49:08;102514.81;;;2.18;100.00
9249;BME280;4660;41.768;26.198;2023-01-01T00:51:33;102514.19;;;2.09;100.00
9249;BME280;4660;41.768;26.198;2023-01-01T00:53:59;102523.09;;;2.08;100.00
9249;BME280;4660;41.768;26.198;2023-01-01T00:56:24;102484.06;;;1.79;100.00
9249;BME280;4660;41.768;26.198;2023-01-01T00:58:50;102512.16;;;2.18;100.00
9249;BME280;4660;41.768;26.198;2023-01-01T01:01:15;102525.69;;;2.40;100.00
9249;BME280;4660;41.768;26.198;2023-01-01T01:03:42;102520.75;;;2.27;100.00
9249;BME280;4660;41.768;26.198;2023-01-01T01:06:10;102521.59;;;2.29;100.00
9249;BME280;4660;41.768;26.198;2023-01-01T01:08:39;102518.97;;;2.27;100.00
9249;BME280;4660;41.768;26.198;2023-01-01T01:11:07;102516.25;;;2.30;100.00
9249;BME280;4660;41.768;26.198;2023-01-01T01:13:33;102515.22;;;2.34;100.00
9249;BME280;4660;41.768;26.198;2023-01-01T01:15:59;102465.38;;;2.14;100.00
9249;BME280;4660;41.768;26.198;2023-01-01T01:18:25;102509.47;;;2.49;100.00
9249;BME280;4660;41.768;26.198;2023-01-01T01:20:52;102505.88;;;2.52;100.00
9249;BME280;4660;41.768;26.198;2023-01-01T01:23:19;102485.59;;;2.48;100.00
9249;BME280;4660;41.768;26.198;2023-01-01T01:25:45;102488.47;;;2.70;100.00
9249;BME280;4660;41.768;26.198;2023-01-01T01:28:10;102480.22;;;2.49;100.00
9249;BME280;4660;41.768;26.198;2023-01-01T01:30:37;102483.50;;;2.59;100.00
9249;BME280;4660;41.768;26.198;2023-01-01T01:33:02;102489.22;;;2.75;100.00
9249;BME280;4660;41.768;26.198;2023-01-01T01:35:28;102490.31;;;2.68;100.00
9249;BME280;4660;41.768;26.198;2023-01-01T01:37:54;102478.78;;;2.69;100.00
9249;BME280;4660;41.768;26.198;2023-01-01T01:40:20;102466.50;;;2.65;100.00
9249;BME280;4660;41.768;26.198;2023-01-01T01:42:47;102471.81;;;2.65;100.00
9249;BME280;4660;41.768;26.198;2023-01-01T01:45:13;102489.75;;;2.57;100.00
9249;BME280;4660;41.768;26.198;2023-01-01T01:47:51;102485.25;;;2.88;100.00
9249;BME280;4660;41.768;26.198;2023-01-01T01:52:59;102474.81;;;2.82;100.00
9249;BME280;4660;41.768;26.198;2023-01-01T01:55:28;102484.16;;;2.95;100.00
9249;BME280;4660;41.768;26.198;2023-01-01T01:57:55;102497.06;;;2.78;100.00
9249;BME280;4660;41.768;26.198;2023-01-01T02:00:21;102489.75;;;2.86;100.00
9249;BME280;4660;41.768;26.198;2023-01-01T02:02:58;102475.34;;;2.65;100.00
9249;BME280;4660;41.768;26.198;2023-01-01T02:05:27;102496.16;;;2.51;100.00
9249;BME280;4660;41.768;26.198;2023-01-01T02:07:54;102491.25;;;2.67;100.00
9249;BME280;4660;41.768;26.198;2023-01-01T02:10:20;102495.38;;;2.47;100.00
9249;BME280;4660;41.768;26.198;2023-01-01T02:12:46;102486.78;;;2.67;100.00
9249;BME280;4660;41.768;26.198;2023-01-01T02:15:12;102477.59;;;2.79;100.00
9249;BME280;4660;41.768;26.198;2023-01-01T02:17:55;102478.91;;;2.92;100.00
9249;BME280;4660;41.768;26.198;2023-01-01T02:23:01;102481.38;;;2.70;100.00
9249;BME280;4660;41.768;26.198;2023-01-01T02:30:34;102467.16;;;2.71;100.00
9249;BME280;4660;41.768;26.198;2023-01-01T02:33:03;102481.47;;;2.67;100.00
9249;BME280;4660;41.768;26.198;2023-01-01T02:35:51;102472.19;;;2.53;100.00
9249;BME280;4660;41.768;26.198;2023-01-01T02:38:34;102481.16;;;2.48;100.00
9249;BME280;4660;41.768;26.198;2023-01-01T02:41:13;102485.41;;;2.25;100.00
9249;BME280;4660;41.768;26.198;2023-01-01T02:43:41;102484.84;;;2.44;100.00
9249;BME280;4660;41.768;26.198;2023-01-01T02:46:08;102485.59;;;2.48;100.00
9249;BME280;4660;41.768;26.198;2023-01-01T02:53:54;102493.88;;;2.08;100.00
9249;BME280;4660;41.768;26.198;2023-01-01T02:56:34;102492.69;;;1.87;100.00
9249;BME280;4660;41.768;26.198;2023-01-01T03:08:07;102494.28;;;2.83;100.00
9249;BME280;4660;41.768;26.198;2023-01-01T03:11:00;102500.03;;;2.97;100.00
9249;BME280;4660;41.768;26.198;2023-01-01T03:16:23;102489.53;;;2.92;100.00
9249;BME280;4660;41.768;26.198;2023-01-01T03:19:04;102488.03;;;2.84;100.00
9249;BME280;4660;41.768;26.198;2023-01-01T03:21:52;102508.50;;;2.82;100.00
9249;BME280;4660;41.768;26.198;2023-01-01T03:24:39;102502.44;;;2.76;100.00
9249;BME280;4660;41.768;26.198;2023-01-01T03:27:12;102524.88;;;2.68;100.00
9249;BME280;4660;41.768;26.198;2023-01-01T03:29:40;102510.84;;;2.63;100.00
9249;BME280;4660;41.768;26.198;2023-01-01T03:32:13;102507.19;;;2.67;100.00
9249;BME280;4660;41.768;26.198;2023-01-01T03:34:46;102493.69;;;2.14;100.00
9249;BME280;4660;41.768;26.198;2023-01-01T03:37:18;102508.78;;;2.12;100.00
9249;BME280;4660;41.768;26.198;2023-01-01T03:39:48;102502.56;;;2.13;100.00
9249;BME280;4660;41.768;26.198;2023-01-01T03:42:33;102514.69;;;2.23;100.00
9249;BME280;4660;41.768;26.198;2023-01-01T03:45:04;102507.94;;;2.41;100.00
9249;BME280;4660;41.768;26.198;2023-01-01T03:47:31;102519.25;;;1.85;100.00
9249;BME280;4660;41.768;26.198;2023-01-01T03:49:57;102516.34;;;1.62;100.00
9249;BME280;4660;41.768;26.198;2023-01-01T03:52:56;102530.06;;;1.79;100.00
9249;BME280;4660;41.768;26.198;2023-01-01T03:55:33;102513.44;;;1.71;100.00
9249;BME280;4660;41.768;26.198;2023-01-01T03:58:17;102528.47;;;1.71;100.00
9249;BME280;4660;41.768;26.198;2023-01-01T04:00:49;102498.28;;;1.42;100.00
9249;BME280;4660;41.768;26.198;2023-01-01T04:03:23;102535.34;;;1.79;100.00
9249;BME280;4660;41.768;26.198;2023-01-01T04:05:50;102529.59;;;1.62;100.00
9249;BME280;4660;41.768;26.198;2023-01-01T04:08:16;102510.50;;;1.48;100.00
9249;BME280;4660;41.768;26.198;2023-01-01T04:10:46;102522.28;;;1.37;100.00
9249;BME280;4660;41.768;26.198;2023-01-01T04:13:13;102524.16;;;1.32;100.00
9249;BME280;4660;41.768;26.198;2023-01-01T04:15:39;102510.91;;;1.32;100.00
9249;BME280;4660;41.768;26.198;2023-01-01T04:18:05;102526.38;;;1.51;100.00
9249;BME280;4660;41.768;26.198;2023-01-01T04:20:31;102527.97;;;1.56;100.00
9249;BME280;4660;41.768;26.198;2023-01-01T04:22:58;102512.09;;;1.55;100.00
9249;BME280;4660;41.768;26.198;2023-01-01T04:25:24;102528.31;;;1.77;100.00
9249;BME280;4660;41.768;26.198;2023-01-01T04:27:49;102537.31;;;1.71;100.00
9249;BME280;4660;41.768;26.198;2023-01-01T04:30:15;102513.84;;;1.56;100.00
9249;BME280;4660;41.768;26.198;2023-01-01T04:32:41;102536.84;;;1.55;100.00
9249;BME280;4660;41.768;26.198;2023-01-01T04:35:08;102526.88;;;1.65;100.00
9249;BME280;4660;41.768;26.198;2023-01-01T04:37:36;102531.66;;;1.51;100.00
9249;BME280;4660;41.768;26.198;2023-01-01T04:40:02;102542.50;;;1.76;100.00
9249;BME280;4660;41.768;26.198;2023-01-01T04:42:28;102542.25;;;1.86;100.00
9249;BME280;4660;41.768;26.198;2023-01-01T04:44:53;102540.25;;;1.60;100.00
9249;BME280;4660;41.768;26.198;2023-01-01T04:47:19;102546.91;;;1.41;100.00
9249;BME280;4660;41.768;26.198;2023-01-01T04:49:44;102539.50;;;1.55;100.00
9249;BME280;4660;41.768;26.198;2023-01-01T04:52:10;102526.03;;;1.63;100.00
9249;BME280;4660;41.768;26.198;2023-01-01T04:54:35;102514.91;;;1.49;100.00
9249;BME280;4660;41.768;26.198;2023-01-01T04:57:01;102548.94;;;1.67;100.00
9249;BME280;4660;41.768;26.198;2023-01-01T04:59:28;102553.84;;;1.82;100.00
9249;BME280;4660;41.768;26.198;2023-01-01T05:01:55;102546.69;;;1.84;100.00
9249;BME280;4660;41.768;26.198;2023-01-01T05:04:20;102553.63;;;1.90;100.00
9249;BME280;4660;41.768;26.198;2023-01-01T05:06:48;102552.72;;;1.57;100.00
9249;BME280;4660;41.768;26.198;2023-01-01T05:09:22;102532.94;;;1.34;100.00
9249;BME280;4660;41.768;26.198;2023-01-01T05:11:48;102524.97;;;1.34;100.00
9249;BME280;4660;41.768;26.198;2023-01-01T05:14:35;102559.38;;;1.73;100.00
9249;BME280;4660;41.768;26.198;2023-01-01T05:17:12;102463.25;;;0.94;100.00
9249;BME280;4660;41.768;26.198;2023-01-01T05:19:40;102562.19;;;1.67;100.00
9249;BME280;4660;41.768;26.198;2023-01-01T05:22:09;102414.75;;;0.53;100.00
9249;BME280;4660;41.768;26.198;2023-01-01T05:24:58;102426.41;;;0.46;100.00
9249;BME280;4660;41.768;26.198;2023-01-01T05:27:24;102424.38;;;0.57;100.00
9249;BME280;4660;41.768;26.198;2023-01-01T05:29:50;102496.16;;;1.22;100.00
9249;BME280;4660;41.768;26.198;2023-01-01T05:32:21;102557.03;;;1.61;100.00
9249;BME280;4660;41.768;26.198;2023-01-01T05:35:09;102534.09;;;1.24;100.00
9249;BME280;4660;41.768;26.198;2023-01-01T05:37:38;102562.09;;;1.70;100.00
9249;BME280;4660;41.768;26.198;2023-01-01T05:40:10;102504.97;;;1.21;100.00
9249;BME280;4660;41.768;26.198;2023-01-01T05:42:37;102418.66;;;0.75;100.00
9249;BME280;4660;41.768;26.198;2023-01-01T05:45:05;102569.72;;;1.48;100.00
9249;BME280;4660;41.768;26.198;2023-01-01T05:47:34;102495.25;;;0.85;100.00
9249;BME280;4660;41.768;26.198;2023-01-01T05:50:06;102430.31;;;0.28;100.00
9249;BME280;4660;41.768;26.198;2023-01-01T05:52:33;102428.19;;;0.45;100.00
9249;BME280;4660;41.768;26.198;2023-01-01T05:55:01;102455.97;;;0.66;100.00
9249;BME280;4660;41.768;26.198;2023-01-01T05:57:31;102409.19;;;0.26;100.00
9249;BME280;4660;41.768;26.198;2023-01-01T06:00:04;102489.25;;;0.76;100.00
9249;BME280;4660;41.768;26.198;2023-01-01T06:02:36;102477.16;;;0.66;100.00
9249;BME280;4660;41.768;26.198;2023-01-01T06:05:11;102532.53;;;1.14;100.00
9249;BME280;4660;41.768;26.198;2023-01-01T06:07:43;102537.28;;;1.00;100.00
9249;BME280;4660;41.768;26.198;2023-01-01T06:10:33;102438.25;;;0.30;100.00
9249;BME280;4660;41.768;26.198;2023-01-01T06:13:08;102582.03;;;1.15;100.00
9249;BME280;4660;41.768;26.198;2023-01-01T06:15:40;102503.75;;;0.60;100.00
9249;BME280;4660;41.768;26.198;2023-01-01T06:18:31;102440.59;;;0.42;100.00
9249;BME280;4660;41.768;26.198;2023-01-01T06:21:25;102460.41;;;0.64;100.00
9249;BME280;4660;41.768;26.198;2023-01-01T06:23:55;102497.25;;;1.12;100.00
9249;BME280;4660;41.768;26.198;2023-01-01T06:26:24;102589.56;;;1.69;100.00
9249;BME280;4660;41.768;26.198;2023-01-01T06:29:13;102459.44;;;0.68;100.00
9249;BME280;4660;41.768;26.198;2023-01-01T06:31:51;102526.59;;;1.04;100.00
9249;BME280;4660;41.768;26.198;2023-01-01T06:34:29;102597.06;;;1.52;100.00
9249;BME280;4660;41.768;26.198;2023-01-01T06:37:28;102577.28;;;1.28;100.00
9249;BME280;4660;41.768;26.198;2023-01-01T06:39:55;102533.44;;;1.15;100.00
9249;BME280;4660;41.768;26.198;2023-01-01T06:42:26;102505.75;;;0.89;100.00
9249;BME280;4660;41.768;26.198;2023-01-01T06:45:03;102449.09;;;0.58;100.00
9249;BME280;4660;41.768;26.198;2023-01-01T06:47:32;102602.03;;;1.65;100.00
9249;BME280;4660;41.768;26.198;2023-01-01T06:50:00;102565.09;;;1.21;100.00
9249;BME280;4660;41.768;26.198;2023-01-01T06:52:26;102449.06;;;0.59;100.00
9249;BME280;4660;41.768;26.198;2023-01-01T06:54:54;102607.88;;;1.80;100.00
9249;BME280;4660;41.768;26.198;2023-01-01T06:57:25;102586.31;;;1.92;100.00
9249;BME280;4660;41.768;26.198;2023-01-01T06:59:51;102526.28;;;1.18;100.00
9249;BME280;4660;41.768;26.198;2023-01-01T07:02:17;102539.53;;;1.18;100.00
9249;BME280;4660;41.768;26.198;2023-01-01T07:04:46;102527.63;;;1.34;100.00
9249;BME280;4660;41.768;26.198;2023-01-01T07:07:12;102533.94;;;1.30;100.00
9249;BME280;4660;41.768;26.198;2023-01-01T07:09:39;102481.75;;;0.57;100.00
9249;BME280;4660;41.768;26.198;2023-01-01T07:15:29;102529.03;;;1.51;100.00
9249;BME280;4660;41.768;26.198;2023-01-01T07:18:22;102532.56;;;1.84;100.00
9249;BME280;4660;41.768;26.198;2023-01-01T07:21:33;102619.13;;;1.89;100.00
9249;BME280;4660;41.768;26.198;2023-01-01T07:24:14;102626.13;;;2.26;100.00
9249;BME280;4660;41.768;26.198;2023-01-01T07:26:47;102491.13;;;1.78;100.00
9249;BME280;4660;41.768;26.198;2023-01-01T07:29:15;102523.66;;;1.86;100.00
9249;BME280;4660;41.768;26.198;2023-01-01T07:31:58;102487.97;;;1.97;100.00
9249;BME280;4660;41.768;26.198;2023-01-01T07:34:34;102618.94;;;2.92;100.00
9249;BME280;4660;41.768;26.198;2023-01-01T07:37:22;102572.41;;;2.77;100.00
9249;BME280;4660;41.768;26.198;2023-01-01T07:40:01;102604.41;;;3.03;100.00
9249;BME280;4660;41.768;26.198;2023-01-01T07:45:11;102597.19;;;3.07;100.00
9249;BME280;4660;41.768;26.198;2023-01-01T07:47:47;102610.19;;;3.18;100.00
9249;BME280;4660;41.768;26.198;2023-01-01T07:51:03;102613.97;;;3.39;100.00
9249;BME280;4660;41.768;26.198;2023-01-01T07:53:34;102590.88;;;3.11;100.00
9249;BME280;4660;41.768;26.198;2023-01-01T07:56:22;102625.09;;;3.51;100.00
9249;BME280;4660;41.768;26.198;2023-01-01T07:59:09;102616.63;;;2.81;100.00
9249;BME280;4660;41.768;26.198;2023-01-01T08:02:10;102602.03;;;2.94;100.00
9249;BME280;4660;41.768;26.198;2023-01-01T08:05:03;102488.81;;;2.59;100.00
9249;BME280;4660;41.768;26.198;2023-01-01T08:07:36;102590.09;;;3.37;100.00
9249;BME280;4660;41.768;26.198;2023-01-01T08:12:48;102493.34;;;3.12;100.00
9249;BME280;4660;41.768;26.198;2023-01-01T08:15:26;102639.41;;;4.02;100.00
9249;BME280;4660;41.768;26.198;2023-01-01T08:18:12;102630.47;;;3.76;100.00
9249;BME280;4660;41.768;26.198;2023-01-01T08:20:41;102619.09;;;3.71;100.00
9249;BME280;4660;41.768;26.198;2023-01-01T08:26:05;102591.34;;;3.80;100.00
9249;BME280;4660;41.768;26.198;2023-01-01T08:28:41;102607.06;;;4.12;100.00
9249;BME280;4660;41.768;26.198;2023-01-01T08:31:30;102604.03;;;4.23;100.00
9249;BME280;4660;41.768;26.198;2023-01-01T08:34:13;102555.63;;;3.85;100.00
9249;BME280;4660;41.768;26.198;2023-01-01T08:36:42;102569.84;;;3.84;100.00
9249;BME280;4660;41.768;26.198;2023-01-01T08:39:18;102570.84;;;4.07;100.00
9249;BME280;4660;41.768;26.198;2023-01-01T08:41:45;102624.56;;;4.20;100.00
9249;BME280;4660;41.768;26.198;2023-01-01T08:44:45;102574.97;;;3.91;100.00
9249;BME280;4660;41.768;26.198;2023-01-01T08:47:27;102633.16;;;4.28;100.00
9249;BME280;4660;41.768;26.198;2023-01-01T08:50:29;102499.97;;;3.78;100.00
9249;BME280;4660;41.768;26.198;2023-01-01T08:53:26;102624.16;;;4.32;100.00
9249;BME280;4660;41.768;26.198;2023-01-01T08:56:07;102515.47;;;3.92;100.00
9249;BME280;4660;41.768;26.198;2023-01-01T08:58:45;102621.88;;;4.69;100.00
9249;BME280;4660;41.768;26.198;2023-01-01T09:01:25;102557.56;;;4.55;100.00
9249;BME280;4660;41.768;26.198;2023-01-01T09:04:23;102610.16;;;5.20;100.00
9249;BME280;4660;41.768;26.198;2023-01-01T09:07:09;102605.88;;;5.16;100.00
9249;BME280;4660;41.768;26.198;2023-01-01T09:09:52;102604.78;;;5.44;100.00
9249;BME280;4660;41.768;26.198;2023-01-01T09:12:42;102613.53;;;5.69;100.00
9249;BME280;4660;41.768;26.198;2023-01-01T09:15:40;102619.31;;;5.80;100.00
9249;BME280;4660;41.768;26.198;2023-01-01T09:18:12;102611.28;;;6.02;100.00
9249;BME280;4660;41.768;26.198;2023-01-01T09:20:42;102536.88;;;5.71;100.00
9249;BME280;4660;41.768;26.198;2023-01-01T09:23:15;102610.22;;;6.47;100.00
9249;BME280;4660;41.768;26.198;2023-01-01T09:25:45;102560.88;;;6.34;100.00
9249;BME280;4660;41.768;26.198;2023-01-01T09:28:24;102561.38;;;6.62;100.00
9249;BME280;4660;41.768;26.198;2023-01-01T09:31:10;102578.41;;;6.80;100.00
9249;BME280;4660;41.768;26.198;2023-01-01T09:33:39;102597.06;;;7.01;100.00
9249;BME280;4660;41.768;26.198;2023-01-01T09:36:31;102578.78;;;7.28;100.00
9249;BME280;4660;41.768;26.198;2023-01-01T09:39:04;102510.63;;;6.99;100.00
9249;BME280;4660;41.768;26.198;2023-01-01T09:46:37;102574.03;;;7.88;100.00
9249;BME280;4660;41.768;26.198;2023-01-01T09:52:43;102575.13;;;8.18;100.00
9249;BME280;4660;41.768;26.198;2023-01-01T09:56:03;102563.03;;;8.27;100.00
9249;BME280;4660;41.768;26.198;2023-01-01T09:59:01;102493.72;;;7.86;100.00
9249;BME280;4660;41.768;26.198;2023-01-01T10:17:52;102468.56;;;8.55;100.00
9249;BME280;4660;41.768;26.198;2023-01-01T10:20:43;102528.84;;;9.13;100.00
9249;BME280;4660;41.768;26.198;2023-01-01T10:23:24;102459.16;;;8.95;100.00
9249;BME280;4660;41.768;26.198;2023-01-01T10:26:32;102431.19;;;8.83;100.00
9249;BME280;4660;41.768;26.198;2023-01-01T10:29:53;102488.41;;;9.16;100.00
9249;BME280;4660;41.768;26.198;2023-01-01T10:32:34;102459.56;;;9.03;100.00
9249;BME280;4660;41.768;26.198;2023-01-01T10:43:33;102487.47;;;9.91;100.00
9249;BME280;4660;41.768;26.198;2023-01-01T10:49:10;102488.72;;;10.30;100.00
9249;BME280;4660;41.768;26.198;2023-01-01T10:51:48;102491.56;;;10.41;100.00
9249;BME280;4660;41.768;26.198;2023-01-01T11:02:34;102480.34;;;10.90;100.00
9249;BME280;4660;41.768;26.198;2023-01-01T11:05:13;102502.97;;;11.14;100.00
9249;BME280;4660;41.768;26.198;2023-01-01T11:07:45;102453.03;;;10.96;100.00
9249;BME280;4660;41.768;26.198;2023-01-01T11:10:21;102379.81;;;10.77;100.00
9249;BME280;4660;41.768;26.198;2023-01-01T11:12:56;102455.50;;;11.26;100.00
9249;BME280;4660;41.768;26.198;2023-01-01T11:16:09;102494.84;;;11.68;100.00
9249;BME280;4660;41.768;26.198;2023-01-01T11:18:50;102439.56;;;11.23;100.00
9249;BME280;4660;41.768;26.198;2023-01-01T11:24:25;102477.16;;;11.64;100.00
9249;BME280;4660;41.768;26.198;2023-01-01T11:27:21;102484.78;;;11.97;100.00
9249;BME280;4660;41.768;26.198;2023-01-01T11:38:05;102469.47;;;12.36;100.00
9249;BME280;4660;41.768;26.198;2023-01-01T11:41:30;102466.75;;;12.36;100.00
9249;BME280;4660;41.768;26.198;2023-01-01T11:44:22;102472.22;;;12.47;100.00
9249;BME280;4660;41.768;26.198;2023-01-01T11:47:34;102463.81;;;12.52;100.00
9249;BME280;4660;41.768;26.198;2023-01-01T12:04:23;102435.41;;;13.07;100.00
9249;BME280;4660;41.768;26.198;2023-01-01T12:07:21;102404.41;;;13.00;100.00
9249;BME280;4660;41.768;26.198;2023-01-01T12:10:45;102445.84;;;13.24;100.00
9249;BME280;4660;41.768;26.198;2023-01-01T12:14:08;102445.59;;;13.27;100.00
9249;BME280;4660;41.768;26.198;2023-01-01T12:17:26;102442.03;;;13.51;100.00
9249;BME280;4660;41.768;26.198;2023-01-01T12:22:56;102417.91;;;13.36;100.00
9249;BME280;4660;41.768;26.198;2023-01-01T12:25:55;102306.63;;;12.83;100.00
9249;BME280;4660;41.768;26.198;2023-01-01T13:04:23;102406.59;;;13.42;100.00
9249;BME280;4660;41.768;26.198;2023-01-01T13:07:07;102361.84;;;13.14;100.00
9249;BME280;4660;41.768;26.198;2023-01-01T13:10:18;102310.06;;;12.85;100.00
9249;BME280;4660;41.768;26.198;2023-01-01T13:44:09;102285.81;;;12.37;100.00
9249;BME280;4660;41.768;26.198;2023-01-01T14:10:55;102384.50;;;12.29;100.00
9249;BME280;4660;41.768;26.198;2023-01-01T14:19:40;102421.63;;;12.25;100.00
9249;BME280;4660;41.768;26.198;2023-01-01T14:23:09;102326.63;;;11.45;100.00
9249;BME280;4660;41.768;26.198;2023-01-01T14:26:23;102420.25;;;12.07;100.00
9249;BME280;4660;41.768;26.198;2023-01-01T14:29:50;102359.06;;;11.69;100.00
9249;BME280;4660;41.768;26.198;2023-01-01T14:37:48;102291.31;;;10.97;100.00
9249;BME280;4660;41.768;26.198;2023-01-01T14:45:32;102319.72;;;10.49;100.00
9249;BME280;4660;41.768;26.198;2023-01-01T14:48:36;102315.91;;;10.39;100.00
9249;BME280;4660;41.768;26.198;2023-01-01T14:52:26;102362.84;;;10.62;100.00
9249;BME280;4660;41.768;26.198;2023-01-01T14:55:19;102325.34;;;10.17;100.00
9249;BME280;4660;41.768;26.198;2023-01-01T14:58:46;102405.03;;;10.61;100.00
9249;BME280;4660;41.768;26.198;2023-01-01T15:02:12;102439.31;;;10.86;100.00
9249;BME280;4660;41.768;26.198;2023-01-01T15:13:21;102362.75;;;9.79;100.00
9249;BME280;4660;41.768;26.198;2023-01-01T15:18:45;102452.53;;;10.19;100.00
9249;BME280;4660;41.768;26.198;2023-01-01T15:24:17;102383.81;;;9.43;100.00
9249;BME280;4660;41.768;26.198;2023-01-01T15:27:50;102350.44;;;9.02;100.00
9249;BME280;4660;41.768;26.198;2023-01-01T15:31:10;102373.28;;;9.09;100.00
9249;BME280;4660;41.768;26.198;2023-01-01T15:36:33;102461.00;;;9.55;100.00
9249;BME280;4660;41.768;26.198;2023-01-01T15:39:11;102420.84;;;9.07;100.00
9249;BME280;4660;41.768;26.198;2023-01-01T15:45:22;102436.88;;;9.09;100.00
9249;BME280;4660;41.768;26.198;2023-01-01T15:51:03;102446.59;;;8.80;100.00
9249;BME280;4660;41.768;26.198;2023-01-01T15:54:13;102331.47;;;8.28;100.00
9249;BME280;4660;41.768;26.198;2023-01-01T15:57:25;102396.03;;;8.88;100.00
9249;BME280;4660;41.768;26.198;2023-01-01T16:03:33;102369.41;;;8.38;100.00
9249;BME280;4660;41.768;26.198;2023-01-01T16:09:35;102416.63;;;8.56;100.00
9249;BME280;4660;41.768;26.198;2023-01-01T16:12:16;102409.63;;;8.53;100.00
9249;BME280;4660;41.768;26.198;2023-01-01T16:14:59;102458.97;;;8.67;100.00
9249;BME280;4660;41.768;26.198;2023-01-01T16:18:42;102325.56;;;7.74;100.00
9249;BME280;4660;41.768;26.198;2023-01-01T16:22:14;102329.97;;;7.75;100.00
9249;BME280;4660;41.768;26.198;2023-01-01T16:25:22;102447.28;;;8.52;100.00
9249;BME280;4660;41.768;26.198;2023-01-01T16:28:25;102456.78;;;8.42;100.00
9249;BME280;4660;41.768;26.198;2023-01-01T16:32:02;102322.09;;;7.72;100.00
9249;BME280;4660;41.768;26.198;2023-01-01T16:35:21;102477.56;;;8.70;100.00
9249;BME280;4660;41.768;26.198;2023-01-01T16:42:07;102449.63;;;8.58;100.00
9249;BME280;4660;41.768;26.198;2023-01-01T16:56:04;102465.66;;;7.76;100.00
9249;BME280;4660;41.768;26.198;2023-01-01T16:59:42;102480.47;;;8.00;100.00
9249;BME280;4660;41.768;26.198;2023-01-01T17:03:08;102502.22;;;7.77;100.00
9249;BME280;4660;41.768;26.198;2023-01-01T17:06:17;102435.81;;;7.32;100.00
9249;BME280;4660;41.768;26.198;2023-01-01T17:13:19;102496.84;;;7.77;100.00
9249;BME280;4660;41.768;26.198;2023-01-01T17:16:09;102424.59;;;7.06;100.00
9249;BME280;4660;41.768;26.198;2023-01-01T17:19:40;102490.91;;;7.72;100.00
9249;BME280;4660;41.768;26.198;2023-01-01T17:23:42;102445.50;;;7.17;100.00
9249;BME280;4660;41.768;26.198;2023-01-01T17:27:02;102358.97;;;6.27;100.00
9249;BME280;4660;41.768;26.198;2023-01-01T17:33:55;102471.78;;;7.09;100.00
9249;BME280;4660;41.768;26.198;2023-01-01T17:37:33;102404.78;;;6.38;100.00
9249;BME280;4660;41.768;26.198;2023-01-01T17:44:53;102417.06;;;6.23;100.00
9249;BME280;4660;41.768;26.198;2023-01-01T17:48:24;102503.25;;;6.85;100.00
9249;BME280;4660;41.768;26.198;2023-01-01T17:52:05;102377.03;;;5.83;100.00
9249;BME280;4660;41.768;26.198;2023-01-01T18:03:03;102442.19;;;6.19;100.00
9249;BME280;4660;41.768;26.198;2023-01-01T18:06:00;102419.50;;;6.09;100.00
9249;BME280;4660;41.768;26.198;2023-01-01T18:09:20;102398.06;;;5.90;100.00
9249;BME280;4660;41.768;26.198;2023-01-01T18:16:42;102406.44;;;5.42;100.00
9249;BME280;4660;41.768;26.198;2023-01-01T18:23:15;102480.41;;;5.60;100.00
9249;BME280;4660;41.768;26.198;2023-01-01T18:26:12;102481.81;;;5.69;100.00
9249;BME280;4660;41.768;26.198;2023-01-01T18:29:43;102408.06;;;5.46;100.00
9249;BME280;4660;41.768;26.198;2023-01-01T18:32:20;102382.97;;;5.30;100.00
9249;BME280;4660;41.768;26.198;2023-01-01T18:35:30;102354.94;;;5.19;100.00
9249;BME280;4660;41.768;26.198;2023-01-01T18:39:00;102370.75;;;5.24;100.00
9249;BME280;4660;41.768;26.198;2023-01-01T18:48:31;102371.88;;;5.18;100.00
9249;BME280;4660;41.768;26.198;2023-01-01T18:51:42;102385.22;;;5.18;100.00
9249;BME280;4660;41.768;26.198;2023-01-01T18:54:20;102402.38;;;5.33;100.00
9249;BME280;4660;41.768;26.198;2023-01-01T18:57:22;102340.28;;;4.67;100.00
9249;BME280;4660;41.768;26.198;2023-01-01T18:59:54;102407.56;;;4.74;100.00
9249;BME280;4660;41.768;26.198;2023-01-01T19:08:00;102414.31;;;4.60;100.00
9249;BME280;4660;41.768;26.198;2023-01-01T19:10:52;102342.31;;;4.17;100.00
9249;BME280;4660;41.768;26.198;2023-01-01T19:14:03;102429.75;;;4.52;100.00
9249;BME280;4660;41.768;26.198;2023-01-01T19:32:51;102385.03;;;4.13;100.00
9249;BME280;4660;41.768;26.198;2023-01-01T19:35:47;102484.81;;;4.97;100.00
9249;BME280;4660;41.768;26.198;2023-01-01T19:38:19;102400.16;;;4.36;100.00
9249;BME280;4660;41.768;26.198;2023-01-01T19:40:55;102491.66;;;5.04;100.00
9249;BME280;4660;41.768;26.198;2023-01-01T19:43:27;102480.81;;;5.09;100.00